createdAt,value
2019-05-16T00:00:08.380Z,100477.02
2019-05-16T00:02:39.843Z,100472.80
2019-05-16T00:05:10.473Z,100475.36
2019-05-16T00:07:40.927Z,100473.39
2019-05-16T00:10:11.504Z,100469.80
2019-05-16T00:12:41.949Z,100468.31
2019-05-16T00:15:12.475Z,100465.94
2019-05-16T00:17:43.242Z,100464.91
2019-05-16T00:20:13.963Z,100463.06
2019-05-16T00:22:44.390Z,100450.83
2019-05-16T00:25:14.989Z,100454.56
2019-05-16T00:27:47.743Z,100451.38
2019-05-16T00:30:18.423Z,100450.28
2019-05-16T00:32:48.962Z,100447.55
2019-05-16T00:35:19.766Z,100450.28
2019-05-16T00:37:50.184Z,100444.94
2019-05-16T00:40:20.996Z,100451.39
2019-05-16T00:42:51.430Z,100443.67
2019-05-16T00:45:21.861Z,100447.68
2019-05-16T00:47:52.695Z,100450.85
2019-05-16T00:50:23.125Z,100446.13
2019-05-16T00:52:53.888Z,100438.77
2019-05-16T00:55:24.885Z,100441.34
2019-05-16T00:57:58.400Z,100436.94
2019-05-16T01:00:49.898Z,100431.86
2019-05-16T01:03:21.060Z,100426.05
2019-05-16T01:05:51.491Z,100435.52
2019-05-16T01:08:21.964Z,100430.80
2019-05-16T01:10:52.394Z,100422.57
2019-05-16T01:13:23.110Z,100422.78
2019-05-16T01:15:53.583Z,100416.06
2019-05-16T01:18:24.017Z,100420.05
2019-05-16T01:20:54.772Z,100412.33
2019-05-16T01:23:25.419Z,100409.52
2019-05-16T01:25:56.156Z,100418.50
2019-05-16T01:28:28.377Z,100406.06
2019-05-16T01:30:59.461Z,100409.84
2019-05-16T01:33:30.212Z,100407.54
2019-05-16T01:36:00.948Z,100405.02
2019-05-16T01:38:31.432Z,100402.27
2019-05-16T01:41:02.808Z,100397.66
2019-05-16T01:43:33.241Z,100397.20
2019-05-16T01:46:03.725Z,100395.71
2019-05-16T01:48:34.530Z,100391.71
2019-05-16T01:51:04.953Z,100404.73
2019-05-16T01:53:35.454Z,100386.95
2019-05-16T01:56:08.587Z,100394.66
2019-05-16T01:58:39.119Z,100389.05
2019-05-16T02:01:15.496Z,100383.70
2019-05-16T02:03:42.737Z,100376.89
2019-05-16T02:06:14.020Z,100375.59
2019-05-16T02:08:44.492Z,100378.16
2019-05-16T02:11:14.920Z,100371.05
2019-05-16T02:13:48.222Z,100376.39
2019-05-16T02:16:18.740Z,100365.43
2019-05-16T02:18:49.612Z,100365.65
2019-05-16T02:21:20.045Z,100357.72
2019-05-16T02:23:51.629Z,100363.95
2019-05-16T02:26:22.134Z,100358.91
2019-05-16T02:28:52.868Z,100357.58
2019-05-16T02:31:23.681Z,100353.58
2019-05-16T02:33:54.378Z,100351.88
2019-05-16T02:36:24.819Z,100349.79
2019-05-16T02:38:55.863Z,100342.19
2019-05-16T02:41:26.388Z,100343.88
2019-05-16T02:43:56.831Z,100344.42
2019-05-16T02:46:27.298Z,100343.88
2019-05-16T02:49:00.607Z,100343.23
2019-05-16T02:51:31.494Z,100342.47
2019-05-16T02:54:02.046Z,100344.09
2019-05-16T02:56:33.401Z,100338.25
2019-05-16T02:59:03.851Z,100336.92
2019-05-16T03:01:34.784Z,100337.97
2019-05-16T03:04:05.638Z,100328.02
2019-05-16T03:06:41.015Z,100329.93
2019-05-16T03:09:11.610Z,100329.64
2019-05-16T03:11:44.229Z,100323.66
2019-05-16T03:14:16.662Z,100319.59
2019-05-16T03:16:50.572Z,100317.28
2019-05-16T03:19:23.159Z,100315.19
2019-05-16T03:21:55.188Z,100311.05
2019-05-16T03:24:25.623Z,100307.87
2019-05-16T03:26:56.799Z,100308.31
2019-05-16T03:29:27.225Z,100311.30
2019-05-16T03:32:02.560Z,100301.78
2019-05-16T03:34:34.190Z,100301.20
2019-05-16T03:37:04.617Z,100301.92
2019-05-16T03:39:34.787Z,100297.36
2019-05-16T03:42:05.213Z,100301.78
2019-05-16T03:44:35.645Z,100300.45
2019-05-16T03:47:06.491Z,100302.19
2019-05-16T03:49:37.304Z,100297.75
2019-05-16T03:52:07.733Z,100288.42
2019-05-16T03:54:41.760Z,100291.09
2019-05-16T03:57:11.538Z,100292.42
2019-05-16T03:59:42.223Z,100283.19
2019-05-16T04:02:12.976Z,100289.14
2019-05-16T04:04:44.292Z,100291.45
2019-05-16T04:07:15.142Z,100287.30
2019-05-16T04:09:45.977Z,100285.20
2019-05-16T04:12:16.877Z,100283.73
2019-05-16T04:14:47.457Z,100286.14
2019-05-16T04:17:20.938Z,100280.92
2019-05-16T04:19:51.013Z,100286.39
2019-05-16T04:22:21.700Z,100281.84
2019-05-16T04:24:52.175Z,100278.91
2019-05-16T04:27:22.603Z,100286.61
2019-05-16T04:29:53.032Z,100275.80
2019-05-16T04:32:24.246Z,100276.30
2019-05-16T04:34:55.223Z,100277.41
2019-05-16T04:37:26.356Z,100277.09
2019-05-16T04:40:01.300Z,100278.75
2019-05-16T04:42:31.235Z,100281.16
2019-05-16T04:45:01.821Z,100275.23
2019-05-16T04:47:32.726Z,100271.37
2019-05-16T04:50:03.151Z,100269.72
2019-05-16T04:52:33.573Z,100271.59
2019-05-16T04:55:04.054Z,100269.07
2019-05-16T04:57:34.774Z,100262.67
2019-05-16T05:00:05.798Z,100266.47
2019-05-16T05:02:36.454Z,100264.77
2019-05-16T05:05:07.340Z,100265.20
2019-05-16T05:07:40.465Z,100261.62
2019-05-16T05:10:11.555Z,100261.73
2019-05-16T05:12:42.144Z,100268.08
2019-05-16T05:15:13.062Z,100262.45
2019-05-16T05:17:43.536Z,100262.59
2019-05-16T05:20:13.972Z,100260.97
2019-05-16T05:22:44.398Z,100261.73
2019-05-16T05:25:14.880Z,100266.95
2019-05-16T05:27:45.677Z,100261.95
2019-05-16T05:30:16.104Z,100262.09
2019-05-16T05:32:46.927Z,100259.16
2019-05-16T05:35:20.316Z,100261.47
2019-05-16T05:37:50.717Z,100262.23
2019-05-16T05:40:21.344Z,100268.91
2019-05-16T05:42:51.772Z,100257.67
2019-05-16T05:45:22.350Z,100258.09
2019-05-16T05:47:52.833Z,100257.37
2019-05-16T05:50:23.261Z,100257.02
2019-05-16T05:52:53.686Z,100258.30
2019-05-16T05:55:24.498Z,100262.09
2019-05-16T05:57:54.925Z,100253.73
2019-05-16T06:00:25.707Z,100247.71
2019-05-16T06:02:57.321Z,100251.56
2019-05-16T06:05:30.450Z,100252.07
2019-05-16T06:08:01.833Z,100254.38
2019-05-16T06:10:33.794Z,100256.22
2019-05-16T06:13:04.270Z,100244.95
2019-05-16T06:15:34.688Z,100242.28
2019-05-16T06:18:05.666Z,100244.80
2019-05-16T06:20:36.093Z,100243.62
2019-05-16T06:23:06.524Z,100241.22
2019-05-16T06:25:37.329Z,100237.56
2019-05-16T06:28:07.749Z,100241.12
2019-05-16T06:30:40.671Z,100232.14
2019-05-16T06:33:10.852Z,100238.48
2019-05-16T06:35:41.275Z,100238.13
2019-05-16T06:38:11.705Z,100227.72
2019-05-16T06:40:42.180Z,100228.28
2019-05-16T06:43:12.896Z,100222.11
2019-05-16T06:45:43.331Z,100225.67
2019-05-16T06:48:13.812Z,100228.69
2019-05-16T06:50:44.597Z,100227.52
2019-05-16T06:53:15.020Z,100222.08
2019-05-16T06:55:45.496Z,100228.73
2019-05-16T06:58:15.921Z,100224.02
2019-05-16T07:00:46.404Z,100223.15
2019-05-16T07:03:17.073Z,100219.75
2019-05-16T07:05:50.053Z,100218.56
2019-05-16T07:08:20.607Z,100217.08
2019-05-16T07:10:51.865Z,100215.54
2019-05-16T07:13:22.284Z,100216.20
2019-05-16T07:15:52.741Z,100220.37
2019-05-16T07:18:23.516Z,100220.20
2019-05-16T07:20:54.291Z,100219.34
2019-05-16T07:23:24.718Z,100219.19
2019-05-16T07:25:55.557Z,100216.20
2019-05-16T07:28:26.457Z,100217.11
2019-05-16T07:30:56.891Z,100218.15
2019-05-16T07:33:27.665Z,100212.66
2019-05-16T07:36:00.178Z,100201.16
2019-05-16T07:38:30.911Z,100204.69
2019-05-16T07:41:01.993Z,100205.61
2019-05-16T07:43:33.422Z,100200.63
2019-05-16T07:46:04.005Z,100200.48
2019-05-16T07:48:34.432Z,100199.09
2019-05-16T07:51:04.865Z,100203.85
2019-05-16T07:53:35.350Z,100194.05
2019-05-16T07:56:05.788Z,100186.81
2019-05-16T07:58:36.210Z,100190.41
2019-05-16T08:01:09.086Z,100191.67
2019-05-16T08:03:41.259Z,100176.44
2019-05-16T08:06:11.898Z,100184.00
2019-05-16T08:08:42.682Z,100179.79
2019-05-16T08:11:13.103Z,100180.77
2019-05-16T08:13:44.073Z,100178.16
2019-05-16T08:16:14.605Z,100173.66
2019-05-16T08:18:45.381Z,100174.37
2019-05-16T08:21:16.855Z,100165.95
2019-05-16T08:23:50.028Z,100164.70
2019-05-16T08:28:51.904Z,100155.70
2019-05-16T08:31:22.969Z,100148.52
2019-05-16T08:33:55.204Z,100144.66
2019-05-16T08:36:25.621Z,100139.38
2019-05-16T08:38:56.047Z,100137.48
2019-05-16T08:41:26.501Z,100134.45
2019-05-16T08:44:00.917Z,100132.52
2019-05-16T08:46:32.417Z,100130.61
2019-05-16T08:49:02.155Z,100129.27
2019-05-16T08:50:11.175Z,100160.41
2019-05-16T08:54:05.113Z,100125.73
2019-05-16T08:56:35.763Z,100124.76
2019-05-16T08:59:06.600Z,100118.34
2019-05-16T09:01:47.143Z,100124.86
2019-05-16T09:04:11.946Z,100132.66
2019-05-16T09:06:42.888Z,100119.93
2019-05-16T09:09:29.702Z,100117.00
2019-05-16T09:10:34.226Z,100119.17
2019-05-16T09:11:48.768Z,100117.91
2019-05-16T09:14:18.145Z,100115.25
2019-05-16T09:16:48.595Z,100113.11
2019-05-16T09:19:19.085Z,100109.20
2019-05-16T09:21:49.512Z,100106.74
2019-05-16T09:24:21.232Z,100105.17
2019-05-16T09:26:51.713Z,100105.05
2019-05-16T09:29:22.140Z,100094.69
2019-05-16T09:32:07.835Z,100086.39
2019-05-16T09:34:28.233Z,100086.03
2019-05-16T09:37:00.854Z,100087.45
2019-05-16T09:39:29.654Z,100083.72
2019-05-16T09:42:00.777Z,100085.88
2019-05-16T09:44:31.202Z,100084.03
2019-05-16T09:47:01.628Z,100079.83
2019-05-16T09:49:32.796Z,100080.19
2019-05-16T09:52:03.230Z,100089.67
2019-05-16T09:54:33.649Z,100082.64
2019-05-16T09:57:06.584Z,100084.58
2019-05-16T09:59:37.140Z,100082.12
2019-05-16T10:02:08.167Z,100084.64
2019-05-16T10:04:39.102Z,100083.16
2019-05-16T10:07:09.537Z,100073.09
2019-05-16T10:09:45.005Z,100071.31
2019-05-16T10:12:15.503Z,100066.17
2019-05-16T10:14:44.256Z,100057.59
2019-05-16T10:17:14.680Z,100052.36
2019-05-16T10:19:47.482Z,100050.87
2019-05-16T10:22:17.346Z,100049.50
2019-05-16T10:24:47.783Z,100046.10
2019-05-16T10:27:18.334Z,100041.53
2019-05-16T10:29:48.776Z,100035.11
2019-05-16T10:32:19.620Z,100031.30
2019-05-16T10:34:50.105Z,100032.75
2019-05-16T10:37:20.889Z,100028.79
2019-05-16T10:39:51.967Z,100023.56
2019-05-16T10:42:28.532Z,100031.17
2019-05-16T10:44:57.478Z,100026.14
2019-05-16T10:47:30.674Z,100019.94
2019-05-16T10:49:59.224Z,100019.94
2019-05-16T10:52:29.928Z,100014.61
2019-05-16T10:55:02.602Z,100015.16
2019-05-16T10:57:33.485Z,100016.34
2019-05-16T11:00:16.013Z,100007.00
2019-05-16T11:02:37.287Z,100005.58
2019-05-16T11:05:25.799Z,100013.47
2019-05-16T11:07:41.624Z,99999.66
2019-05-16T11:10:12.909Z,100002.64
2019-05-16T11:12:50.183Z,100008.14
2019-05-16T11:15:17.227Z,100002.13
2019-05-16T11:17:48.122Z,99999.00
2019-05-16T11:20:21.445Z,99992.63
2019-05-16T11:22:51.905Z,99992.13
2019-05-16T11:25:28.881Z,99994.64
2019-05-16T11:27:57.606Z,99990.05
2019-05-16T11:30:28.222Z,99987.38
2019-05-16T11:32:58.777Z,99976.70
2019-05-16T11:35:29.267Z,99975.77
2019-05-16T11:37:59.689Z,99973.22
2019-05-16T11:40:30.419Z,99966.78
2019-05-16T11:43:10.637Z,99965.91
2019-05-16T11:45:33.075Z,99967.59
2019-05-16T11:48:03.554Z,99964.73
2019-05-16T11:50:37.021Z,99961.44
2019-05-16T11:53:07.338Z,99955.43
2019-05-16T11:55:50.380Z,99946.63
2019-05-16T11:58:10.401Z,99943.02
2019-05-16T12:00:40.907Z,99939.71
2019-05-16T12:03:11.602Z,99942.86
2019-05-16T12:05:42.362Z,99933.39
2019-05-16T12:08:13.047Z,99931.45
2019-05-16T12:10:43.872Z,99934.15
2019-05-16T12:13:25.221Z,99929.41
2019-05-16T12:15:46.833Z,99929.73
2019-05-16T12:18:17.535Z,99937.58
2019-05-16T12:20:48.052Z,99929.70
2019-05-16T12:23:18.949Z,99932.69
2019-05-16T12:25:50.099Z,99928.42
2019-05-16T12:28:20.523Z,99926.67
2019-05-16T12:30:51.941Z,99930.84
2019-05-16T12:33:22.422Z,99921.56
2019-05-16T12:35:52.992Z,99925.95
2019-05-16T12:38:23.805Z,99918.22
2019-05-16T12:40:56.483Z,99909.86
2019-05-16T12:43:43.746Z,99919.05
2019-05-16T12:45:59.576Z,99910.56
2019-05-16T12:48:30.287Z,99908.05
2019-05-16T12:51:01.092Z,99906.20
2019-05-16T12:53:32.077Z,99905.38
2019-05-16T12:56:02.711Z,99909.06
2019-05-16T12:58:42.166Z,99908.66
2019-05-16T13:01:07.717Z,99900.36
2019-05-16T13:03:39.863Z,99894.32
2019-05-16T13:06:10.340Z,99891.68
2019-05-16T13:08:40.800Z,99886.59
2019-05-16T13:11:12.095Z,99881.95
2019-05-16T13:13:57.421Z,99888.02
2019-05-16T13:16:16.777Z,99877.95
2019-05-16T13:18:49.838Z,99871.59
2019-05-16T13:21:22.859Z,99870.42
2019-05-16T13:23:53.356Z,99869.28
2019-05-16T13:26:23.859Z,99866.26
2019-05-16T13:28:54.262Z,99856.09
2019-05-16T13:31:24.703Z,99852.30
2019-05-16T13:33:56.857Z,99847.33
2019-05-16T13:36:27.358Z,99840.47
2019-05-16T13:38:57.862Z,99839.96
2019-05-16T13:41:28.328Z,99835.91
2019-05-16T13:43:58.752Z,99837.96
2019-05-16T13:46:29.540Z,99835.80
2019-05-16T13:49:00.175Z,99821.45
2019-05-16T13:51:30.870Z,99817.13
2019-05-16T13:54:02.056Z,99811.49
2019-05-16T13:56:32.967Z,99814.14
2019-05-16T13:59:03.429Z,99809.69
2019-05-16T14:01:36.828Z,99803.30
2019-05-16T14:04:09.697Z,99798.41
2019-05-16T14:06:41.687Z,99793.91
2019-05-16T14:09:11.264Z,99790.03
2019-05-16T14:11:41.678Z,99792.59
2019-05-16T14:14:12.174Z,99780.19
2019-05-16T14:16:43.331Z,99781.70
2019-05-16T14:19:16.930Z,99780.16
2019-05-16T14:21:47.791Z,99778.98
2019-05-16T14:24:18.990Z,99777.81
2019-05-16T14:26:49.412Z,99776.50
2019-05-16T14:29:20.275Z,99767.06
2019-05-16T14:31:50.752Z,99763.15
2019-05-16T14:34:21.184Z,99764.53
2019-05-16T14:36:52.465Z,99756.98
2019-05-16T14:39:23.252Z,99759.20
2019-05-16T14:41:53.687Z,99757.00
2019-05-16T14:44:24.124Z,99747.80
2019-05-16T14:46:54.680Z,99751.98
2019-05-16T14:49:28.449Z,99745.87
2019-05-16T14:51:58.093Z,99743.86
2019-05-16T14:54:28.743Z,99742.69
2019-05-16T14:57:01.132Z,99741.20
2019-05-16T14:59:31.954Z,99739.85
2019-05-16T15:02:02.444Z,99739.02
2019-05-16T15:04:32.875Z,99732.35
2019-05-16T15:07:03.308Z,99736.53
2019-05-16T15:09:34.596Z,99737.06
2019-05-16T15:12:06.913Z,99740.23
2019-05-16T15:14:37.752Z,99738.42
2019-05-16T15:17:09.148Z,99737.92
2019-05-16T15:19:39.917Z,99738.27
2019-05-16T15:22:10.712Z,99734.23
2019-05-16T15:24:41.556Z,99734.86
2019-05-16T15:27:12.632Z,99725.23
2019-05-16T15:29:43.771Z,99723.23
2019-05-16T15:32:14.247Z,99720.89
2019-05-16T15:34:47.439Z,99718.55
2019-05-16T15:37:17.263Z,99718.94
2019-05-16T15:39:47.993Z,99713.91
2019-05-16T15:42:18.439Z,99721.10
2019-05-16T15:44:49.146Z,99716.77
2019-05-16T15:47:19.652Z,99713.73
2019-05-16T15:49:50.481Z,99713.25
2019-05-16T15:52:21.464Z,99713.25
2019-05-16T15:54:52.863Z,99714.06
2019-05-16T15:57:23.308Z,99713.59
2019-05-16T15:59:54.139Z,99703.01
2019-05-16T16:02:27.054Z,99711.05
2019-05-16T16:04:57.597Z,99701.87
2019-05-16T16:07:28.991Z,99702.56
2019-05-16T16:09:59.437Z,99701.70
2019-05-16T16:12:29.855Z,99697.23
2019-05-16T16:15:00.506Z,99697.70
2019-05-16T16:17:31.499Z,99696.52
2019-05-16T16:20:02.579Z,99691.36
2019-05-16T16:22:33.354Z,99688.87
2019-05-16T16:25:06.678Z,99683.06
2019-05-16T16:27:36.421Z,99686.89
2019-05-16T16:30:07.741Z,99678.89
2019-05-16T16:32:39.044Z,99678.89
2019-05-16T16:35:09.481Z,99681.05
2019-05-16T16:37:40.350Z,99674.56
2019-05-16T16:40:12.373Z,99674.56
2019-05-16T16:42:47.483Z,99676.88
2019-05-16T16:45:18.692Z,99675.06
2019-05-16T16:47:50.405Z,99674.25
2019-05-16T16:50:21.111Z,99671.40
2019-05-16T16:52:51.578Z,99670.55
2019-05-16T16:55:22.077Z,99676.92
2019-05-16T16:57:55.992Z,99682.91
2019-05-16T17:00:27.751Z,99682.92
2019-05-16T17:03:06.137Z,99680.42
2019-05-16T17:05:31.849Z,99682.22
2019-05-16T17:08:02.775Z,99682.89
2019-05-16T17:10:33.601Z,99682.91
2019-05-16T17:13:06.654Z,99679.55
2019-05-16T17:15:36.974Z,99675.40
2019-05-16T17:18:07.628Z,99680.05
2019-05-16T17:20:38.700Z,99681.05
2019-05-16T17:23:09.807Z,99683.59
2019-05-16T17:25:40.429Z,99686.74
2019-05-16T17:28:12.187Z,99683.95
2019-05-16T17:30:42.979Z,99682.75
2019-05-16T17:33:13.523Z,99675.23
2019-05-16T17:35:48.273Z,99683.91
2019-05-16T17:38:17.421Z,99682.72
2019-05-16T17:40:47.971Z,99682.73
2019-05-16T17:43:18.713Z,99679.59
2019-05-16T17:45:49.736Z,99680.42
2019-05-16T17:48:22.125Z,99671.52
2019-05-16T17:50:53.006Z,99675.90
2019-05-16T17:53:23.502Z,99680.87
2019-05-16T17:55:57.152Z,99683.91
2019-05-16T17:58:28.796Z,99681.10
2019-05-16T18:01:00.511Z,99687.61
2019-05-16T18:03:31.102Z,99684.27
2019-05-16T18:06:02.399Z,99683.09
2019-05-16T18:08:33.198Z,99682.91
2019-05-16T18:11:07.144Z,99683.42
2019-05-16T18:13:51.146Z,99689.92
2019-05-16T18:16:22.337Z,99681.56
2019-05-16T18:18:54.714Z,99683.09
2019-05-16T18:21:25.189Z,99681.05
2019-05-16T18:23:55.649Z,99686.92
2019-05-16T18:26:28.147Z,99683.25
2019-05-16T18:33:12.245Z,99678.91
2019-05-16T18:35:43.067Z,99686.23
2019-05-16T18:38:13.506Z,99688.59
2019-05-16T18:40:44.013Z,99685.93
2019-05-16T18:43:16.625Z,99679.25
2019-05-16T18:45:47.530Z,99684.89
2019-05-16T18:48:18.048Z,99684.94
2019-05-16T18:50:49.738Z,99679.41
2019-05-16T18:53:21.466Z,99681.59
2019-05-16T18:55:52.978Z,99682.61
2019-05-16T18:58:23.446Z,99683.11
2019-05-16T19:00:54.294Z,99685.95
2019-05-16T19:03:27.025Z,99682.11
2019-05-16T19:05:57.437Z,99677.23
2019-05-16T19:08:28.825Z,99675.05
2019-05-16T19:11:02.620Z,99689.06
2019-05-16T19:13:33.806Z,99681.21
2019-05-16T19:16:06.218Z,99683.73
2019-05-16T19:18:36.970Z,99678.22
2019-05-16T19:21:07.699Z,99683.25
2019-05-16T19:23:38.100Z,99668.73
2019-05-16T19:26:09.563Z,99674.20
2019-05-16T19:28:41.814Z,99673.83
2019-05-16T19:31:13.076Z,99674.52
2019-05-16T19:33:49.012Z,99671.16
2019-05-16T19:36:19.712Z,99668.65
2019-05-16T19:38:50.998Z,99669.34
2019-05-16T19:41:21.902Z,99668.48
2019-05-16T19:43:53.093Z,99675.33
2019-05-16T19:46:27.127Z,99678.16
2019-05-16T19:48:57.907Z,99675.86
2019-05-16T19:51:28.334Z,99675.88
2019-05-16T19:53:59.477Z,99674.52
2019-05-16T19:56:30.337Z,99677.19
2019-05-16T19:59:01.117Z,99675.48
2019-05-16T20:01:32.288Z,99678.62
2019-05-16T20:04:03.547Z,99671.10
2019-05-16T20:06:36.947Z,99669.77
2019-05-16T20:09:08.900Z,99673.44
2019-05-16T20:11:39.682Z,99678.52
2019-05-16T20:14:10.184Z,99674.33
2019-05-16T20:16:41.734Z,99674.32
2019-05-16T20:19:12.966Z,99676.19
2019-05-16T20:21:43.396Z,99667.95
2019-05-16T20:24:16.560Z,99665.97
2019-05-16T20:26:46.694Z,99664.81
2019-05-16T20:29:19.469Z,99667.84
2019-05-16T20:31:51.630Z,99673.16
2019-05-16T20:34:22.521Z,99670.15
2019-05-16T20:36:52.949Z,99664.30
2019-05-16T20:39:23.384Z,99661.42
2019-05-16T20:41:56.966Z,99662.75
2019-05-16T20:44:26.769Z,99661.75
2019-05-16T20:46:57.787Z,99661.41
2019-05-16T20:49:30.905Z,99663.10
2019-05-16T20:52:02.896Z,99662.41
2019-05-16T20:54:33.637Z,99658.55
2019-05-16T20:57:06.630Z,99662.07
2019-05-16T20:59:36.948Z,99665.61
2019-05-16T21:02:07.933Z,99661.78
2019-05-16T21:04:39.039Z,99664.80
2019-05-16T21:07:11.210Z,99658.11
2019-05-16T21:09:41.625Z,99660.73
2019-05-16T21:12:12.104Z,99650.23
2019-05-16T21:14:42.532Z,99645.38
2019-05-16T21:17:13.348Z,99645.02
2019-05-16T21:19:44.478Z,99646.71
2019-05-16T21:22:16.271Z,99645.02
2019-05-16T21:24:47.041Z,99643.33
2019-05-16T21:27:19.005Z,99639.66
2019-05-16T21:29:49.739Z,99638.67
2019-05-16T21:32:20.178Z,99641.98
2019-05-16T21:34:51.094Z,99631.66
2019-05-16T21:37:21.890Z,99633.47
2019-05-16T21:39:52.729Z,99630.78
2019-05-16T21:42:23.534Z,99629.11
2019-05-16T21:44:54.239Z,99626.30
2019-05-16T21:47:27.336Z,99622.30
2019-05-16T21:49:57.037Z,99623.77
2019-05-16T21:52:28.934Z,99623.94
2019-05-16T21:54:59.804Z,99625.61
2019-05-16T21:57:30.275Z,99627.95
2019-05-16T22:00:02.045Z,99627.66
2019-05-16T22:02:32.628Z,99627.09
2019-05-16T22:05:06.177Z,99622.91
2019-05-16T22:07:36.585Z,99619.37
2019-05-16T22:10:07.459Z,99619.90
2019-05-16T22:12:38.621Z,99617.39
2019-05-16T22:15:09.336Z,99617.61
2019-05-16T22:17:40.052Z,99619.62
2019-05-16T22:20:10.528Z,99615.98
2019-05-16T22:22:40.959Z,99615.76
2019-05-16T22:25:11.683Z,99614.59
2019-05-16T22:27:42.547Z,99610.59
2019-05-16T22:30:16.436Z,99621.94
2019-05-16T22:32:47.704Z,99616.25
2019-05-16T22:35:19.824Z,99606.93
2019-05-16T22:37:55.555Z,99614.80
2019-05-16T22:40:22.783Z,99605.13
2019-05-16T22:42:53.385Z,99606.12
2019-05-16T22:45:23.916Z,99605.30
2019-05-16T22:47:54.399Z,99600.28
2019-05-16T22:50:27.126Z,99599.81
2019-05-16T22:52:57.320Z,99594.59
2019-05-16T22:55:27.790Z,99592.59
2019-05-16T22:57:58.586Z,99594.41
2019-05-16T23:00:31.163Z,99587.44
2019-05-16T23:03:01.650Z,99596.27
2019-05-16T23:05:32.446Z,99595.27
2019-05-16T23:08:07.329Z,99591.44
2019-05-16T23:10:36.880Z,99593.25
2019-05-16T23:13:07.927Z,99587.42
2019-05-16T23:15:38.739Z,99595.27
2019-05-16T23:18:09.558Z,99591.42
2019-05-16T23:20:40.314Z,99593.57
2019-05-16T23:23:11.163Z,99586.25
2019-05-16T23:25:41.924Z,99585.58
2019-05-16T23:28:12.361Z,99582.55
2019-05-16T23:30:43.085Z,99581.73
2019-05-16T23:33:13.933Z,99575.90
2019-05-16T23:35:46.723Z,99573.05
2019-05-16T23:38:19.989Z,99576.40
2019-05-16T23:40:49.829Z,99576.40
2019-05-16T23:43:20.265Z,99579.06
2019-05-16T23:45:50.697Z,99572.22
2019-05-16T23:48:21.184Z,99571.88
2019-05-16T23:50:51.630Z,99571.08
2019-05-16T23:53:22.449Z,99564.56
2019-05-16T23:55:53.288Z,99567.52
2019-05-16T23:58:23.728Z,99562.16
